sensor_id;sensor_type;location;lat;lon;timestamp;P1;durP1;ratioP1;P2;durP2;ratioP2
7883;SDS011;3987;51.458;7.238;2023-02-01T00:14:24;33.07;;;13.30;;
7883;SDS011;3987;51.458;7.238;2023-02-01T00:29:24;19.17;;;10.03;;
7883;SDS011;3987;51.458;7.238;2023-02-01T00:44:26;17.73;;;7.07;;
7883;SDS011;3987;51.458;7.238;2023-02-01T00:59:27;17.53;;;5.77;;
7883;SDS011;3987;51.458;7.238;2023-02-01T01:14:29;16.23;;;6.50;;
7883;SDS011;3987;51.458;7.238;2023-02-01T01:29:30;12.17;;;5.83;;
7883;SDS011;3987;51.458;7.238;2023-02-01T01:59:58;11.10;;;6.83;;
7883;SDS011;3987;51.458;7.238;2023-02-01T02:15:17;15.33;;;8.10;;
7883;SDS011;3987;51.458;7.238;2023-02-01T02:45:51;9.87;;;4.87;;
7883;SDS011;3987;51.458;7.238;2023-02-01T03:01:34;16.20;;;4.50;;
7883;SDS011;3987;51.458;7.238;2023-02-01T03:16:54;13.37;;;4.73;;
7883;SDS011;3987;51.458;7.238;2023-02-01T03:31:59;16.30;;;4.60;;
7883;SDS011;3987;51.458;7.238;2023-02-01T03:47:04;16.53;;;4.23;;
7883;SDS011;3987;51.458;7.238;2023-02-01T04:02:11;15.67;;;4.53;;
7883;SDS011;3987;51.458;7.238;2023-02-01T04:17:11;16.57;;;4.97;;
7883;SDS011;3987;51.458;7.238;2023-02-01T04:32:12;12.87;;;5.53;;
7883;SDS011;3987;51.458;7.238;2023-02-01T04:47:12;18.13;;;4.93;;
7883;SDS011;3987;51.458;7.238;2023-02-01T05:02:15;17.27;;;4.93;;
7883;SDS011;3987;51.458;7.238;2023-02-01T05:17:16;13.00;;;4.90;;
7883;SDS011;3987;51.458;7.238;2023-02-01T05:32:16;15.00;;;4.83;;
7883;SDS011;3987;51.458;7.238;2023-02-01T05:47:16;19.87;;;5.00;;
7883;SDS011;3987;51.458;7.238;2023-02-01T06:02:17;18.63;;;5.70;;
7883;SDS011;3987;51.458;7.238;2023-02-01T06:17:17;16.03;;;4.27;;
7883;SDS011;3987;51.458;7.238;2023-02-01T06:32:18;11.23;;;5.03;;
7883;SDS011;3987;51.458;7.238;2023-02-01T06:47:18;17.67;;;4.47;;
7883;SDS011;3987;51.458;7.238;2023-02-01T07:02:18;15.60;;;4.97;;
7883;SDS011;3987;51.458;7.238;2023-02-01T07:17:19;14.93;;;4.20;;
7883;SDS011;3987;51.458;7.238;2023-02-01T07:32:19;16.53;;;4.97;;
7883;SDS011;3987;51.458;7.238;2023-02-01T07:47:20;24.60;;;6.27;;
7883;SDS011;3987;51.458;7.238;2023-02-01T08:02:20;25.53;;;4.97;;
7883;SDS011;3987;51.458;7.238;2023-02-01T08:17:23;15.20;;;4.70;;
7883;SDS011;3987;51.458;7.238;2023-02-01T08:32:23;16.37;;;6.10;;
7883;SDS011;3987;51.458;7.238;2023-02-01T08:47:23;26.40;;;6.73;;
7883;SDS011;3987;51.458;7.238;2023-02-01T09:02:24;23.60;;;6.83;;
7883;SDS011;3987;51.458;7.238;2023-02-01T09:17:28;15.93;;;6.37;;
7883;SDS011;3987;51.458;7.238;2023-02-01T09:32:29;16.83;;;5.47;;
7883;SDS011;3987;51.458;7.238;2023-02-01T09:47:29;16.80;;;6.47;;
7883;SDS011;3987;51.458;7.238;2023-02-01T10:02:39;12.60;;;6.37;;
7883;SDS011;3987;51.458;7.238;2023-02-01T10:32:57;17.37;;;5.23;;
7883;SDS011;3987;51.458;7.238;2023-02-01T10:48:08;21.30;;;6.47;;
7883;SDS011;3987;51.458;7.238;2023-02-01T11:03:22;17.23;;;6.23;;
7883;SDS011;3987;51.458;7.238;2023-02-01T11:18:31;13.43;;;5.43;;
7883;SDS011;3987;51.458;7.238;2023-02-01T11:33:37;14.93;;;6.03;;
7883;SDS011;3987;51.458;7.238;2023-02-01T11:48:40;14.23;;;5.77;;
7883;SDS011;3987;51.458;7.238;2023-02-01T12:18:50;16.87;;;5.70;;
7883;SDS011;3987;51.458;7.238;2023-02-01T13:04:23;14.20;;;5.27;;
7883;SDS011;3987;51.458;7.238;2023-02-01T13:34:57;15.77;;;4.53;;
7883;SDS011;3987;51.458;7.238;2023-02-01T14:20:40;13.20;;;4.03;;
7883;SDS011;3987;51.458;7.238;2023-02-01T14:35:43;10.60;;;3.70;;
7883;SDS011;3987;51.458;7.238;2023-02-01T14:51:01;10.40;;;3.73;;
7883;SDS011;3987;51.458;7.238;2023-02-01T15:06:01;12.73;;;3.70;;
7883;SDS011;3987;51.458;7.238;2023-02-01T15:21:04;10.40;;;4.37;;
7883;SDS011;3987;51.458;7.238;2023-02-01T15:51:06;14.67;;;4.70;;
7883;SDS011;3987;51.458;7.238;2023-02-01T16:06:26;14.07;;;3.30;;
7883;SDS011;3987;51.458;7.238;2023-02-01T16:21:28;5.03;;;3.57;;
7883;SDS011;3987;51.458;7.238;2023-02-01T16:36:28;11.70;;;3.73;;
7883;SDS011;3987;51.458;7.238;2023-02-01T16:51:30;13.27;;;4.57;;
7883;SDS011;3987;51.458;7.238;2023-02-01T17:06:32;15.80;;;4.43;;
7883;SDS011;3987;51.458;7.238;2023-02-01T17:21:44;5.03;;;3.47;;
7883;SDS011;3987;51.458;7.238;2023-02-01T17:36:46;7.30;;;4.97;;
7883;SDS011;3987;51.458;7.238;2023-02-01T17:51:47;12.83;;;6.07;;
7883;SDS011;3987;51.458;7.238;2023-02-01T18:06:49;12.00;;;4.03;;
7883;SDS011;3987;51.458;7.238;2023-02-01T18:21:49;16.07;;;5.37;;
7883;SDS011;3987;51.458;7.238;2023-02-01T18:36:52;18.87;;;5.73;;
7883;SDS011;3987;51.458;7.238;2023-02-01T18:51:52;4.03;;;2.30;;
7883;SDS011;3987;51.458;7.238;2023-02-01T19:06:53;1.73;;;1.73;;
7883;SDS011;3987;51.458;7.238;2023-02-01T19:21:53;5.63;;;5.17;;
7883;SDS011;3987;51.458;7.238;2023-02-01T19:36:53;13.17;;;4.80;;
7883;SDS011;3987;51.458;7.238;2023-02-01T19:51:54;15.17;;;5.70;;
7883;SDS011;3987;51.458;7.238;2023-02-01T20:06:54;2.60;;;1.63;;
7883;SDS011;3987;51.458;7.238;2023-02-01T20:21:55;2.07;;;1.70;;
7883;SDS011;3987;51.458;7.238;2023-02-01T20:36:56;6.37;;;2.20;;
7883;SDS011;3987;51.458;7.238;2023-02-01T20:51:56;1.83;;;1.60;;
7883;SDS011;3987;51.458;7.238;2023-02-01T21:06:57;3.00;;;2.00;;
7883;SDS011;3987;51.458;7.238;2023-02-01T21:21:59;2.07;;;1.97;;
7883;SDS011;3987;51.458;7.238;2023-02-01T21:37:00;5.80;;;5.43;;
7883;SDS011;3987;51.458;7.238;2023-02-01T21:52:01;4.83;;;4.50;;
7883;SDS011;3987;51.458;7.238;2023-02-01T22:07:02;3.23;;;1.87;;
7883;SDS011;3987;51.458;7.238;2023-02-01T22:22:03;1.83;;;1.73;;
7883;SDS011;3987;51.458;7.238;2023-02-01T22:37:04;2.60;;;2.40;;
7883;SDS011;3987;51.458;7.238;2023-02-01T22:52:04;2.50;;;2.30;;
7883;SDS011;3987;51.458;7.238;2023-02-01T23:07:05;3.13;;;2.80;;
7883;SDS011;3987;51.458;7.238;2023-02-01T23:22:05;5.43;;;3.40;;
7883;SDS011;3987;51.458;7.238;2023-02-01T23:37:06;3.73;;;3.17;;
7883;SDS011;3987;51.458;7.238;2023-02-01T23:52:06;7.17;;;5.60;;
